createdAt,value
2022-08-17T00:01:52.086Z,23.31
2022-08-17T00:04:20.545Z,23.09
2022-08-17T00:06:49.108Z,23.12
2022-08-17T00:09:18.373Z,23.01
2022-08-17T00:12:41.014Z,23.05
2022-08-17T00:14:36.261Z,22.70
2022-08-17T00:17:04.792Z,22.95
2022-08-17T00:19:32.989Z,23.01
2022-08-17T00:22:34.062Z,22.75
2022-08-17T00:24:50.667Z,22.99
2022-08-17T00:27:19.185Z,22.96
2022-08-17T00:29:46.242Z,22.16
2022-08-17T00:33:22.801Z,22.89
2022-08-17T00:35:05.206Z,22.85
2022-08-17T00:37:32.343Z,23.03
2022-08-17T00:39:59.593Z,22.92
2022-08-17T00:42:30.925Z,23.03
2022-08-17T00:44:58.646Z,22.71
2022-08-17T00:47:26.049Z,22.86
2022-08-17T00:49:53.152Z,22.53
2022-08-17T00:52:25.164Z,22.91
2022-08-17T00:54:55.505Z,22.86
2022-08-17T00:57:30.622Z,22.70
2022-08-17T01:00:06.426Z,22.71
2022-08-17T01:02:42.334Z,22.48
2022-08-17T01:05:29.725Z,22.96
2022-08-17T01:07:58.933Z,22.74
2022-08-17T01:10:58.444Z,22.51
2022-08-17T01:13:39.767Z,22.57
2022-08-17T01:16:33.931Z,22.70
2022-08-17T01:19:25.381Z,22.51
2022-08-17T01:22:01.169Z,22.50
2022-08-17T01:24:28.763Z,22.47
2022-08-17T01:26:56.648Z,21.80
2022-08-17T01:29:26.015Z,22.31
2022-08-17T01:31:56.894Z,22.31
2022-08-17T01:34:25.117Z,22.14
2022-08-17T01:37:07.454Z,22.17
2022-08-17T01:39:38.068Z,21.48
2022-08-17T01:42:09.452Z,22.19
2022-08-17T01:44:37.425Z,22.06
2022-08-17T01:47:06.235Z,21.85
2022-08-17T01:49:33.544Z,21.82
2022-08-17T01:52:09.771Z,21.82
2022-08-17T01:54:39.297Z,21.98
2022-08-17T01:57:07.088Z,21.56
2022-08-17T01:59:34.264Z,21.37
2022-08-17T02:02:01.848Z,21.77
2022-08-17T02:04:28.788Z,20.43
2022-08-17T02:06:55.818Z,21.78
2022-08-17T02:09:25.812Z,21.83
2022-08-17T02:11:56.343Z,21.77
2022-08-17T02:14:24.847Z,20.94
2022-08-17T02:16:53.019Z,21.78
2022-08-17T02:19:20.681Z,21.76
2022-08-17T02:21:50.169Z,21.30
2022-08-17T02:25:00.385Z,21.70
2022-08-17T02:27:08.079Z,21.70
2022-08-17T02:29:35.351Z,21.47
2022-08-17T02:32:02.714Z,21.58
2022-08-17T02:34:30.186Z,21.52
2022-08-17T02:36:57.194Z,21.23
2022-08-17T02:39:24.282Z,21.44
2022-08-17T02:42:01.046Z,21.12
2022-08-17T02:44:39.597Z,21.68
2022-08-17T02:47:09.924Z,21.06
2022-08-17T02:49:38.019Z,21.32
2022-08-17T02:52:06.787Z,21.50
2022-08-17T02:54:41.316Z,21.27
2022-08-17T02:57:10.549Z,21.50
2022-08-17T02:59:39.418Z,21.29
2022-08-17T03:02:08.802Z,21.48
2022-08-17T03:04:35.970Z,21.09
2022-08-17T03:07:04.522Z,21.53
2022-08-17T03:09:31.904Z,21.43
2022-08-17T03:12:07.471Z,21.58
2022-08-17T03:14:41.238Z,21.45
2022-08-17T03:17:10.231Z,21.46
2022-08-17T03:19:37.760Z,21.54
2022-08-17T03:22:36.035Z,21.10
2022-08-17T03:24:57.314Z,21.40
2022-08-17T03:27:24.281Z,21.56
2022-08-17T03:29:51.258Z,21.55
2022-08-17T03:32:20.783Z,21.60
2022-08-17T03:34:48.166Z,21.60
2022-08-17T03:37:15.281Z,21.42
2022-08-17T03:39:43.083Z,21.58
2022-08-17T03:42:32.015Z,21.54
2022-08-17T03:45:01.485Z,21.56
2022-08-17T03:47:49.803Z,21.64
2022-08-17T03:50:35.881Z,21.59
2022-08-17T03:53:35.048Z,21.84
2022-08-17T03:56:23.110Z,21.81
2022-08-17T03:58:50.661Z,21.75
2022-08-17T04:01:18.085Z,21.59
2022-08-17T04:03:45.125Z,21.49
2022-08-17T04:06:12.237Z,21.75
2022-08-17T04:08:39.203Z,21.39
2022-08-17T04:11:06.325Z,22.08
2022-08-17T04:13:33.328Z,21.95
2022-08-17T04:16:00.313Z,21.99
2022-08-17T04:18:27.343Z,21.90
2022-08-17T04:20:54.513Z,22.13
2022-08-17T04:23:28.366Z,21.88
2022-08-17T04:25:55.374Z,22.16
2022-08-17T04:28:22.487Z,21.65
2022-08-17T04:30:49.563Z,21.81
2022-08-17T04:33:22.021Z,22.21
2022-08-17T04:35:52.440Z,22.23
2022-08-17T04:38:26.308Z,22.39
2022-08-17T04:41:23.983Z,21.57
2022-08-17T04:43:55.978Z,22.08
2022-08-17T04:46:25.642Z,21.60
2022-08-17T04:48:55.294Z,22.66
2022-08-17T04:51:28.168Z,22.74
2022-08-17T04:54:05.324Z,22.40
2022-08-17T04:56:33.065Z,22.46
2022-08-17T04:59:02.872Z,22.66
2022-08-17T05:01:33.891Z,22.89
2022-08-17T05:04:34.246Z,22.76
2022-08-17T05:06:51.699Z,22.80
2022-08-17T05:09:19.086Z,23.12
2022-08-17T05:11:47.546Z,22.96
2022-08-17T05:14:15.099Z,23.19
2022-08-17T05:16:42.281Z,22.88
2022-08-17T05:19:09.437Z,23.34
2022-08-17T05:21:36.562Z,23.42
2022-08-17T05:24:08.031Z,23.40
2022-08-17T05:26:51.227Z,23.52
2022-08-17T05:29:19.029Z,23.09
2022-08-17T05:31:46.248Z,23.33
2022-08-17T05:34:13.435Z,23.82
2022-08-17T05:36:44.160Z,23.68
2022-08-17T05:39:16.977Z,23.96
2022-08-17T05:41:48.221Z,23.87
2022-08-17T05:44:16.331Z,23.99
2022-08-17T05:46:49.100Z,24.21
2022-08-17T05:49:23.565Z,24.13
2022-08-17T05:52:19.904Z,24.43
2022-08-17T05:54:47.372Z,24.45
2022-08-17T05:57:36.800Z,24.63
2022-08-17T06:00:30.348Z,24.69
2022-08-17T06:03:43.343Z,24.76
2022-08-17T06:06:13.401Z,24.47
2022-08-17T06:08:53.534Z,24.75
2022-08-17T06:11:45.981Z,24.94
2022-08-17T06:14:39.566Z,24.45
2022-08-17T06:17:12.914Z,24.72
2022-08-17T06:19:47.057Z,25.28
2022-08-17T06:22:16.770Z,25.43
2022-08-17T06:24:54.308Z,24.97
2022-08-17T06:27:30.678Z,24.94
2022-08-17T06:30:01.213Z,25.75
2022-08-17T06:32:31.580Z,25.33
2022-08-17T06:35:01.036Z,26.05
2022-08-17T06:38:01.701Z,26.34
2022-08-17T06:40:40.082Z,26.29
2022-08-17T06:43:19.554Z,26.59
2022-08-17T06:46:16.814Z,25.72
2022-08-17T06:48:52.536Z,26.85
2022-08-17T06:51:28.363Z,27.03
2022-08-17T06:54:14.303Z,27.01
2022-08-17T06:56:55.201Z,27.34
2022-08-17T06:59:36.304Z,27.38
2022-08-17T07:02:56.658Z,27.63
2022-08-17T07:05:40.601Z,26.79
2022-08-17T07:08:18.703Z,27.57
2022-08-17T07:10:45.737Z,27.90
2022-08-17T07:13:38.486Z,28.00
2022-08-17T07:16:34.475Z,28.17
2022-08-17T07:19:01.635Z,28.11
2022-08-17T07:21:52.574Z,27.03
2022-08-17T07:25:04.326Z,28.10
2022-08-17T07:27:56.081Z,27.87
2022-08-17T07:31:03.217Z,28.05
2022-08-17T07:33:45.548Z,28.30
2022-08-17T07:36:30.238Z,27.04
2022-08-17T07:39:07.875Z,27.97
2022-08-17T07:41:58.895Z,28.67
2022-08-17T07:45:01.862Z,28.47
2022-08-17T07:47:56.400Z,28.92
2022-08-17T07:50:36.278Z,29.00
2022-08-17T07:53:53.288Z,28.84
2022-08-17T07:56:41.833Z,29.06
2022-08-17T07:59:47.891Z,28.98
2022-08-17T08:02:37.002Z,29.23
2022-08-17T08:05:44.303Z,29.34
2022-08-17T08:08:26.830Z,29.35
2022-08-17T08:11:28.634Z,29.45
2022-08-17T08:13:55.767Z,29.20
2022-08-17T08:16:29.822Z,29.49
2022-08-17T08:19:00.307Z,29.48
2022-08-17T08:21:43.528Z,29.75
2022-08-17T08:24:51.818Z,29.77
2022-08-17T08:27:37.798Z,29.96
2022-08-17T08:30:05.479Z,29.84
2022-08-17T08:32:48.152Z,29.96
2022-08-17T08:35:33.915Z,29.93
2022-08-17T08:38:24.147Z,30.06
2022-08-17T08:41:03.549Z,29.95
2022-08-17T08:43:52.809Z,29.95
2022-08-17T08:47:01.943Z,29.98
2022-08-17T08:50:04.528Z,30.08
2022-08-17T08:52:56.087Z,30.11
2022-08-17T08:55:53.993Z,30.35
2022-08-17T08:58:48.532Z,30.43
2022-08-17T09:01:32.688Z,29.96
2022-08-17T09:04:25.234Z,30.55
2022-08-17T09:07:11.187Z,30.33
2022-08-17T09:10:05.198Z,30.70
2022-08-17T09:12:44.274Z,30.20
2022-08-17T09:15:27.747Z,30.32
2022-08-17T09:18:59.844Z,30.67
2022-08-17T09:21:10.400Z,30.65
2022-08-17T09:24:06.482Z,30.42
2022-08-17T09:26:59.581Z,30.33
2022-08-17T09:29:32.538Z,30.55
2022-08-17T09:32:03.963Z,30.62
2022-08-17T09:34:43.622Z,30.49
2022-08-17T09:37:18.512Z,30.29
2022-08-17T09:39:55.708Z,30.63
2022-08-17T09:42:47.758Z,30.84
2022-08-17T09:45:23.814Z,31.02
2022-08-17T09:47:59.960Z,31.37
2022-08-17T09:51:04.623Z,31.24
2022-08-17T09:53:38.185Z,31.69
2022-08-17T09:56:14.078Z,31.97
2022-08-17T09:59:14.016Z,31.99
2022-08-17T10:01:59.859Z,31.75
2022-08-17T10:04:30.744Z,31.25
2022-08-17T10:07:02.372Z,31.10
2022-08-17T10:09:40.269Z,31.02
2022-08-17T10:12:29.765Z,31.33
2022-08-17T10:15:07.946Z,31.11
2022-08-17T10:17:55.702Z,31.13
2022-08-17T10:20:34.059Z,30.90
2022-08-17T10:23:31.026Z,30.67
2022-08-17T10:26:18.963Z,30.79
2022-08-17T10:28:49.633Z,30.69
2022-08-17T10:31:42.711Z,30.78
2022-08-17T10:34:18.976Z,30.69
2022-08-17T10:37:00.250Z,30.94
2022-08-17T10:39:36.044Z,30.78
2022-08-17T10:42:32.745Z,30.34
2022-08-17T10:45:15.504Z,30.68
2022-08-17T10:48:07.340Z,30.79
2022-08-17T10:50:57.673Z,30.84
2022-08-17T10:53:48.778Z,30.82
2022-08-17T10:56:17.554Z,30.77
2022-08-17T10:58:56.469Z,30.39
2022-08-17T11:01:32.810Z,30.68
2022-08-17T11:04:21.609Z,30.55
2022-08-17T11:07:02.147Z,30.05
2022-08-17T11:09:47.561Z,30.24
2022-08-17T11:12:51.925Z,30.75
2022-08-17T11:15:41.467Z,30.69
2022-08-17T11:18:22.734Z,30.55
2022-08-17T11:21:01.443Z,29.77
2022-08-17T11:23:46.540Z,30.31
2022-08-17T11:26:28.275Z,30.76
2022-08-17T11:29:00.134Z,30.79
2022-08-17T11:31:39.707Z,30.87
2022-08-17T11:34:23.234Z,30.98
2022-08-17T11:37:00.578Z,30.86
2022-08-17T11:39:49.174Z,30.71
2022-08-17T11:42:34.561Z,30.67
2022-08-17T11:45:33.265Z,30.86
2022-08-17T11:48:34.397Z,30.95
2022-08-17T11:51:33.875Z,31.07
2022-08-17T11:54:31.179Z,31.12
2022-08-17T11:56:51.886Z,30.93
2022-08-17T11:59:33.935Z,31.23
2022-08-17T12:02:26.421Z,31.17
2022-08-17T12:05:17.053Z,31.37
2022-08-17T12:07:49.449Z,31.31
2022-08-17T12:10:21.620Z,31.13
2022-08-17T12:12:53.381Z,31.15
2022-08-17T12:15:30.194Z,31.13
2022-08-17T12:17:57.930Z,31.08
2022-08-17T12:20:31.191Z,31.21
2022-08-17T12:23:17.769Z,31.10
2022-08-17T12:25:49.449Z,31.14
2022-08-17T12:28:33.801Z,31.03
2022-08-17T12:31:06.399Z,30.99
2022-08-17T12:33:36.874Z,30.83
2022-08-17T12:36:07.575Z,30.87
2022-08-17T12:38:36.982Z,30.78
2022-08-17T12:41:24.991Z,30.04
2022-08-17T12:44:28.266Z,30.85
2022-08-17T12:47:07.839Z,30.07
2022-08-17T12:49:42.296Z,30.65
2022-08-17T12:52:12.443Z,30.67
2022-08-17T12:54:48.683Z,30.21
2022-08-17T12:57:20.834Z,30.63
2022-08-17T12:59:53.507Z,30.44
2022-08-17T13:02:40.098Z,30.55
2022-08-17T13:05:14.681Z,30.33
2022-08-17T13:07:42.761Z,29.95
2022-08-17T13:10:36.555Z,30.13
2022-08-17T13:13:17.766Z,30.46
2022-08-17T13:15:55.419Z,30.19
2022-08-17T13:18:36.497Z,30.38
2022-08-17T13:21:03.852Z,29.99
2022-08-17T13:23:32.258Z,30.14
2022-08-17T13:26:09.487Z,30.39
2022-08-17T13:28:37.493Z,30.39
2022-08-17T13:31:28.075Z,30.45
2022-08-17T13:34:15.222Z,30.28
2022-08-17T13:36:43.744Z,30.14
2022-08-17T13:39:21.709Z,29.96
2022-08-17T13:41:49.589Z,30.44
2022-08-17T13:44:37.827Z,30.32
2022-08-17T13:47:16.201Z,30.17
2022-08-17T13:49:49.048Z,30.07
2022-08-17T13:52:37.915Z,30.16
2022-08-17T13:55:15.982Z,29.47
2022-08-17T13:57:47.479Z,29.88
2022-08-17T14:00:35.581Z,30.03
2022-08-17T14:03:04.754Z,29.97
2022-08-17T14:05:38.138Z,29.80
2022-08-17T14:08:07.289Z,29.73
2022-08-17T14:10:36.618Z,29.79
2022-08-17T14:13:05.301Z,29.70
2022-08-17T14:15:56.364Z,29.56
2022-08-17T14:18:42.035Z,29.68
2022-08-17T14:21:09.630Z,29.76
2022-08-17T14:23:37.710Z,29.75
2022-08-17T14:26:05.444Z,29.39
2022-08-17T14:28:32.605Z,29.79
2022-08-17T14:31:01.372Z,29.76
2022-08-17T14:33:29.242Z,29.66
2022-08-17T14:35:57.700Z,29.76
2022-08-17T14:38:24.982Z,29.48
2022-08-17T14:40:52.693Z,29.27
2022-08-17T14:43:20.589Z,29.20
2022-08-17T14:45:47.938Z,29.70
2022-08-17T14:48:14.961Z,29.69
2022-08-17T14:50:43.166Z,29.08
2022-08-17T14:53:13.774Z,29.57
2022-08-17T14:55:40.849Z,29.59
2022-08-17T14:58:09.229Z,29.36
2022-08-17T15:00:36.975Z,28.97
2022-08-17T15:03:04.424Z,29.42
2022-08-17T15:05:35.507Z,29.09
2022-08-17T15:08:03.779Z,29.40
2022-08-17T15:10:31.253Z,29.28
2022-08-17T15:12:58.846Z,29.33
2022-08-17T15:15:26.152Z,29.36
2022-08-17T15:17:53.333Z,29.28
2022-08-17T15:20:26.426Z,29.23
2022-08-17T15:22:57.474Z,29.33
2022-08-17T15:25:29.899Z,29.15
2022-08-17T15:27:56.912Z,29.19
2022-08-17T15:30:26.023Z,29.21
2022-08-17T15:32:55.358Z,29.21
2022-08-17T15:35:27.536Z,28.88
2022-08-17T15:38:11.203Z,28.33
2022-08-17T15:40:42.635Z,29.12
2022-08-17T15:43:15.601Z,29.02
2022-08-17T15:45:43.323Z,28.72
2022-08-17T15:48:10.793Z,28.86
2022-08-17T15:50:38.067Z,28.98
2022-08-17T15:53:05.216Z,29.00
2022-08-17T15:55:33.238Z,28.99
2022-08-17T15:58:00.598Z,28.58
2022-08-17T16:00:29.482Z,28.75
2022-08-17T16:03:45.010Z,28.88
2022-08-17T16:05:47.103Z,28.31
2022-08-17T16:08:20.070Z,28.31
2022-08-17T16:10:50.006Z,28.79
2022-08-17T16:13:18.353Z,27.97
2022-08-17T16:15:53.036Z,28.69
2022-08-17T16:18:27.466Z,28.60
2022-08-17T16:20:55.163Z,28.18
2022-08-17T16:23:23.220Z,28.58
2022-08-17T16:25:53.743Z,28.44
2022-08-17T16:28:23.356Z,28.52
2022-08-17T16:31:03.472Z,28.37
2022-08-17T16:33:30.486Z,28.26
2022-08-17T16:35:57.641Z,28.33
2022-08-17T16:38:24.714Z,28.29
2022-08-17T16:40:51.708Z,27.89
2022-08-17T16:43:18.749Z,28.20
2022-08-17T16:45:51.828Z,28.25
2022-08-17T16:48:19.973Z,27.97
2022-08-17T16:51:03.169Z,28.25
2022-08-17T16:53:31.898Z,27.71
2022-08-17T16:55:58.975Z,28.13
2022-08-17T16:58:26.544Z,27.94
2022-08-17T17:00:54.495Z,27.62
2022-08-17T17:03:26.177Z,27.84
2022-08-17T17:06:06.402Z,27.99
2022-08-17T17:08:48.978Z,27.53
2022-08-17T17:11:25.335Z,27.78
2022-08-17T17:14:09.371Z,27.74
2022-08-17T17:16:57.782Z,27.78
2022-08-17T17:19:45.774Z,27.71
2022-08-17T17:22:25.765Z,27.12
2022-08-17T17:25:08.967Z,27.53
2022-08-17T17:27:58.936Z,27.55
2022-08-17T17:30:38.350Z,27.46
2022-08-17T17:33:11.532Z,27.32
2022-08-17T17:35:50.842Z,27.22
2022-08-17T17:38:29.264Z,27.11
2022-08-17T17:41:09.411Z,27.10
2022-08-17T17:43:40.386Z,27.08
2022-08-17T17:46:29.278Z,27.06
2022-08-17T17:48:57.908Z,26.83
2022-08-17T17:52:06.778Z,26.62
2022-08-17T17:55:00.182Z,26.89
2022-08-17T17:57:27.138Z,26.76
2022-08-17T18:00:02.993Z,26.68
2022-08-17T18:03:17.300Z,26.69
2022-08-17T18:06:03.034Z,26.05
2022-08-17T18:08:44.907Z,26.60
2022-08-17T18:11:25.117Z,26.56
2022-08-17T18:14:17.610Z,26.06
2022-08-17T18:16:45.462Z,26.26
2022-08-17T18:19:14.459Z,26.15
2022-08-17T18:21:45.965Z,25.84
2022-08-17T18:24:13.702Z,26.13
2022-08-17T18:26:44.760Z,26.16
2022-08-17T18:29:42.852Z,26.28
2022-08-17T18:32:22.791Z,25.36
2022-08-17T18:34:57.690Z,26.12
2022-08-17T18:37:43.143Z,26.03
2022-08-17T18:40:23.737Z,26.13
2022-08-17T18:43:05.860Z,26.06
2022-08-17T18:45:39.088Z,26.01
2022-08-17T18:48:27.911Z,25.92
2022-08-17T18:51:01.725Z,25.89
2022-08-17T18:53:42.725Z,25.79
2022-08-17T18:56:30.769Z,25.45
2022-08-17T18:59:44.875Z,25.81
2022-08-17T19:02:20.669Z,25.69
2022-08-17T19:05:26.622Z,24.97
2022-08-17T19:07:54.625Z,25.07
2022-08-17T19:10:28.881Z,25.41
2022-08-17T19:13:11.337Z,25.58
2022-08-17T19:16:12.070Z,25.60
2022-08-17T19:19:07.934Z,25.48
2022-08-17T19:21:43.127Z,25.43
2022-08-17T19:24:19.855Z,25.33
2022-08-17T19:26:55.457Z,25.32
2022-08-17T19:29:35.420Z,24.55
2022-08-17T19:32:03.633Z,24.47
2022-08-17T19:34:34.492Z,25.27
2022-08-17T19:37:09.699Z,24.37
2022-08-17T19:39:58.023Z,24.92
2022-08-17T19:42:34.097Z,24.75
2022-08-17T19:45:17.914Z,25.16
2022-08-17T19:48:01.665Z,24.99
2022-08-17T19:51:15.495Z,25.22
2022-08-17T19:54:11.132Z,25.11
2022-08-17T19:57:01.710Z,24.98
2022-08-17T19:59:52.278Z,25.18
2022-08-17T20:02:29.305Z,25.19
2022-08-17T20:05:15.514Z,25.10
2022-08-17T20:08:14.470Z,25.27
2022-08-17T20:11:18.376Z,25.21
2022-08-17T20:14:11.974Z,25.10
2022-08-17T20:16:39.352Z,25.12
2022-08-17T20:19:23.029Z,24.93
2022-08-17T20:22:09.814Z,24.99
2022-08-17T20:24:44.125Z,25.06
2022-08-17T20:27:40.131Z,25.01
2022-08-17T20:30:29.887Z,24.84
2022-08-17T20:32:58.485Z,24.93
2022-08-17T20:35:34.757Z,24.70
2022-08-17T20:38:11.142Z,24.95
2022-08-17T20:41:01.310Z,25.00
2022-08-17T20:43:34.450Z,24.92
2022-08-17T20:46:04.487Z,24.81
2022-08-17T20:48:39.854Z,24.90
2022-08-17T20:51:16.567Z,24.92
2022-08-17T20:53:49.857Z,24.88
2022-08-17T20:56:44.662Z,24.92
2022-08-17T20:59:27.692Z,24.40
2022-08-17T21:02:17.448Z,24.85
2022-08-17T21:04:56.945Z,24.80
2022-08-17T21:07:43.224Z,24.30
2022-08-17T21:10:34.057Z,24.30
2022-08-17T21:13:16.109Z,24.72
2022-08-17T21:15:57.597Z,24.20
2022-08-17T21:18:42.625Z,24.56
2022-08-17T21:21:17.252Z,24.48
2022-08-17T21:24:01.373Z,23.75
2022-08-17T21:26:50.357Z,24.51
2022-08-17T21:29:30.994Z,23.92
2022-08-17T21:31:59.723Z,24.44
2022-08-17T21:34:37.991Z,24.30
2022-08-17T21:37:20.293Z,23.98
2022-08-17T21:39:53.142Z,24.36
2022-08-17T21:42:29.180Z,24.32
2022-08-17T21:45:08.068Z,24.08
2022-08-17T21:47:35.190Z,24.18
2022-08-17T21:50:21.200Z,24.27
2022-08-17T21:52:50.196Z,24.18
2022-08-17T21:55:28.326Z,24.16
2022-08-17T21:58:14.054Z,23.98
2022-08-17T22:00:44.768Z,23.59
2022-08-17T22:03:23.837Z,24.12
2022-08-17T22:05:51.621Z,24.05
2022-08-17T22:08:25.008Z,23.99
2022-08-17T22:11:01.478Z,23.83
2022-08-17T22:13:29.845Z,23.87
2022-08-17T22:16:15.585Z,23.47
2022-08-17T22:18:53.672Z,23.84
2022-08-17T22:21:22.565Z,23.86
2022-08-17T22:24:15.422Z,23.79
2022-08-17T22:27:00.298Z,23.80
2022-08-17T22:29:53.276Z,23.82
2022-08-17T22:32:45.655Z,23.77
2022-08-17T22:35:25.058Z,23.65
2022-08-17T22:37:52.732Z,23.64
2022-08-17T22:40:32.019Z,23.15
2022-08-17T22:43:03.532Z,23.51
2022-08-17T22:45:31.329Z,23.50
2022-08-17T22:48:02.210Z,23.40
2022-08-17T22:50:33.119Z,22.63
2022-08-17T22:53:22.724Z,23.34
2022-08-17T22:56:11.487Z,23.13
2022-08-17T22:59:10.886Z,23.21
2022-08-17T23:01:39.261Z,23.25
2022-08-17T23:04:29.586Z,23.13
2022-08-17T23:06:56.736Z,23.16
2022-08-17T23:09:23.818Z,23.08
2022-08-17T23:11:57.558Z,23.13
2022-08-17T23:14:31.474Z,23.09
2022-08-17T23:16:59.476Z,22.92
2022-08-17T23:19:28.443Z,22.57
2022-08-17T23:21:56.561Z,23.10
2022-08-17T23:24:27.162Z,23.02
2022-08-17T23:26:57.260Z,23.04
2022-08-17T23:29:25.832Z,22.72
2022-08-17T23:31:53.106Z,22.63
2022-08-17T23:34:20.192Z,22.13
2022-08-17T23:36:52.946Z,22.30
2022-08-17T23:39:24.370Z,22.85
2022-08-17T23:41:57.261Z,22.91
2022-08-17T23:44:24.339Z,22.86
2022-08-17T23:46:52.108Z,22.91
2022-08-17T23:49:19.534Z,22.89
2022-08-17T23:51:48.879Z,22.69
2022-08-17T23:54:24.281Z,22.54
2022-08-17T23:56:51.434Z,22.74
2022-08-17T23:59:22.631Z,22.84
